createdAt,value
2017-12-05T00:02:11.764Z,11.80
2017-12-05T00:04:39.259Z,14.45
2017-12-05T00:07:07.526Z,14.40
2017-12-05T00:09:35.810Z,16.02
2017-12-05T00:12:04.075Z,19.33
2017-12-05T00:14:31.584Z,16.98
2017-12-05T00:16:59.099Z,15.07
2017-12-05T00:19:27.359Z,14.55
2017-12-05T00:21:54.879Z,14.00
2017-12-05T00:24:22.404Z,16.30
2017-12-05T00:26:50.663Z,15.43
2017-12-05T00:29:18.956Z,18.30
2017-12-05T00:31:47.235Z,16.77
2017-12-05T00:34:15.498Z,18.15
2017-12-05T00:36:43.772Z,17.00
2017-12-05T00:39:12.063Z,14.18
2017-12-05T00:41:40.327Z,15.93
2017-12-05T00:44:08.596Z,14.77
2017-12-05T00:46:36.115Z,14.45
2017-12-05T00:49:03.603Z,15.20
2017-12-05T00:51:31.104Z,18.42
2017-12-05T00:53:58.622Z,16.15
2017-12-05T00:56:26.117Z,14.43
2017-12-05T00:58:53.623Z,15.85
2017-12-05T01:01:21.127Z,17.67
2017-12-05T01:03:49.387Z,15.07
2017-12-05T01:06:17.675Z,14.57
2017-12-05T01:08:45.940Z,14.65
2017-12-05T01:11:14.208Z,16.50
2017-12-05T01:13:42.479Z,17.48
2017-12-05T01:16:09.982Z,20.05
2017-12-05T01:18:37.475Z,17.35
2017-12-05T01:21:04.979Z,16.48
2017-12-05T01:23:33.255Z,17.90
2017-12-05T01:26:01.521Z,16.45
2017-12-05T01:28:29.799Z,17.70
2017-12-05T01:30:58.063Z,16.70
2017-12-05T01:33:25.579Z,15.98
2017-12-05T01:35:53.091Z,15.57
2017-12-05T01:38:21.362Z,16.00
2017-12-05T01:40:49.753Z,17.15
2017-12-05T01:43:18.016Z,18.00
2017-12-05T01:45:46.292Z,17.10
2017-12-05T01:48:13.785Z,17.02
2017-12-05T01:50:41.302Z,17.17
2017-12-05T01:53:09.583Z,20.15
2017-12-05T01:55:37.091Z,18.80
2017-12-05T01:58:04.590Z,16.08
2017-12-05T02:00:34.443Z,17.70
2017-12-05T02:03:01.946Z,17.37
2017-12-05T02:05:29.443Z,18.25
2017-12-05T02:07:57.723Z,18.83
2017-12-05T02:23:32.638Z,14.18
2017-12-05T02:26:00.923Z,11.82
2017-12-05T02:28:29.199Z,10.60
2017-12-05T02:30:57.456Z,10.55
2017-12-05T02:33:25.743Z,10.77
2017-12-05T02:35:54.004Z,10.00
2017-12-05T02:38:21.495Z,13.15
2017-12-05T02:41:01.048Z,14.45
2017-12-05T02:43:28.563Z,14.73
2017-12-05T02:45:56.855Z,13.23
2017-12-05T02:48:25.120Z,14.48
2017-12-05T02:50:53.506Z,17.23
2017-12-05T02:53:21.788Z,16.23
2017-12-05T02:55:50.054Z,18.37
2017-12-05T02:58:18.318Z,17.30
2017-12-05T03:00:47.340Z,15.95
2017-12-05T03:03:15.595Z,14.93
2017-12-05T03:05:43.091Z,16.17
2017-12-05T03:08:10.604Z,16.05
2017-12-05T03:10:38.095Z,14.00
2017-12-05T03:13:05.595Z,13.02
2017-12-05T03:15:33.100Z,13.88
2017-12-05T03:18:01.360Z,13.40
2017-12-05T03:20:29.641Z,15.82
2017-12-05T03:22:57.907Z,14.90
2017-12-05T03:25:25.401Z,14.57
2017-12-05T03:27:52.944Z,17.00
2017-12-05T03:30:20.439Z,14.80
2017-12-05T03:32:47.939Z,16.73
2017-12-05T03:35:21.280Z,16.23
2017-12-05T03:37:48.775Z,16.08
2017-12-05T03:40:16.287Z,19.80
2017-12-05T03:42:43.795Z,15.75
2017-12-05T03:45:11.292Z,21.05
2017-12-05T03:47:39.559Z,18.60
2017-12-05T03:50:07.839Z,17.00
2017-12-05T03:52:36.122Z,17.70
2017-12-05T03:55:04.395Z,18.40
2017-12-05T03:57:32.878Z,18.12
2017-12-05T04:00:01.151Z,24.87
2017-12-05T04:02:29.423Z,16.65
2017-12-05T04:04:57.711Z,18.52
2017-12-05T04:07:25.979Z,18.15
2017-12-05T04:09:54.264Z,16.15
2017-12-05T04:12:22.527Z,18.40
2017-12-05T04:14:50.807Z,17.30
2017-12-05T04:17:19.187Z,18.30
2017-12-05T04:19:47.453Z,17.00
2017-12-05T04:22:15.734Z,16.20
2017-12-05T04:24:43.998Z,14.55
2017-12-05T04:27:11.526Z,14.75
2017-12-05T04:29:39.023Z,15.52
2017-12-05T04:32:07.304Z,15.32
2017-12-05T04:34:35.575Z,15.43
2017-12-05T04:37:03.855Z,12.98
2017-12-05T04:39:32.130Z,14.75
2017-12-05T04:42:00.419Z,15.00
2017-12-05T04:44:28.703Z,13.85
2017-12-05T04:46:56.208Z,15.82
2017-12-05T04:49:23.711Z,13.10
2017-12-05T04:51:51.986Z,14.85
2017-12-05T04:54:20.277Z,15.52
2017-12-05T04:56:47.779Z,14.80
2017-12-05T04:59:15.278Z,14.68
2017-12-05T05:01:43.547Z,15.98
2017-12-05T05:04:11.829Z,14.63
2017-12-05T05:06:40.102Z,15.10
2017-12-05T05:09:08.372Z,16.05
2017-12-05T05:11:36.647Z,14.50
2017-12-05T05:14:04.915Z,15.40
2017-12-05T05:16:32.408Z,17.33
2017-12-05T05:18:59.923Z,16.60
2017-12-05T05:21:27.422Z,14.82
2017-12-05T05:23:54.946Z,16.02
2017-12-05T05:26:22.453Z,18.62
2017-12-05T05:28:49.947Z,14.43
2017-12-05T05:31:17.460Z,16.30
2017-12-05T05:33:45.068Z,14.40
2017-12-05T05:36:12.566Z,14.95
2017-12-05T05:38:40.834Z,15.88
2017-12-05T05:41:09.100Z,16.05
2017-12-05T05:43:36.601Z,14.43
2017-12-05T05:46:04.120Z,14.05
2017-12-05T05:48:31.612Z,16.10
2017-12-05T05:50:59.251Z,14.10
2017-12-05T05:53:27.739Z,13.98
2017-12-05T05:55:56.211Z,14.48
2017-12-05T05:58:24.496Z,14.93
2017-12-05T06:00:52.845Z,14.70
2017-12-05T06:03:20.348Z,15.10
2017-12-05T06:05:47.960Z,17.27
2017-12-05T06:08:15.460Z,16.83
2017-12-05T06:10:42.967Z,15.50
2017-12-05T06:13:10.479Z,14.32
2017-12-05T06:15:37.979Z,16.95
2017-12-05T06:18:05.483Z,15.23
2017-12-05T06:20:33.749Z,16.20
2017-12-05T06:23:02.248Z,15.88
2017-12-05T06:25:29.763Z,15.65
2017-12-05T06:27:57.272Z,15.20
2017-12-05T06:30:24.787Z,15.57
2017-12-05T06:32:52.287Z,14.20
2017-12-05T06:35:19.795Z,13.15
2017-12-05T06:37:47.296Z,14.20
2017-12-05T06:40:14.831Z,12.05
2017-12-05T06:42:42.331Z,13.18
2017-12-05T06:45:09.931Z,12.88
2017-12-05T06:47:37.624Z,14.57
2017-12-05T06:50:05.891Z,13.13
2017-12-05T06:52:34.164Z,14.00
2017-12-05T06:55:02.447Z,12.50
2017-12-05T06:57:30.728Z,13.82
2017-12-05T06:59:59.022Z,12.82
2017-12-05T07:02:26.667Z,13.88
2017-12-05T07:04:54.931Z,13.25
2017-12-05T07:07:23.191Z,13.25
2017-12-05T07:09:50.702Z,13.70
2017-12-05T07:12:18.203Z,12.68
2017-12-05T07:14:45.698Z,13.20
2017-12-05T07:17:13.979Z,13.65
2017-12-05T07:19:42.464Z,15.23
2017-12-05T07:22:10.728Z,15.48
2017-12-05T07:24:38.996Z,13.85
2017-12-05T07:27:07.487Z,14.77
2017-12-05T07:29:35.749Z,12.48
2017-12-05T07:32:03.246Z,13.32
2017-12-05T07:34:30.779Z,14.57
2017-12-05T07:36:59.039Z,15.13
2017-12-05T07:39:26.538Z,12.63
2017-12-05T07:41:54.035Z,14.68
2017-12-05T07:44:21.547Z,12.43
2017-12-05T07:46:49.060Z,12.90
2017-12-05T07:49:16.555Z,12.57
2017-12-05T07:51:44.816Z,13.20
2017-12-05T07:54:13.080Z,13.90
2017-12-05T07:56:40.586Z,13.20
2017-12-05T07:59:08.195Z,12.93
2017-12-05T08:01:35.692Z,14.45
2017-12-05T08:04:03.192Z,13.10
2017-12-05T08:06:30.712Z,12.57
2017-12-05T08:08:58.215Z,11.60
2017-12-05T08:11:25.824Z,11.38
2017-12-05T08:13:53.336Z,13.15
2017-12-05T08:16:20.840Z,11.27
2017-12-05T08:18:48.372Z,11.88
2017-12-05T08:21:15.887Z,13.75
2017-12-05T08:23:43.407Z,12.30
2017-12-05T08:26:11.684Z,13.75
2017-12-05T08:28:39.951Z,13.30
2017-12-05T08:31:08.211Z,12.45
2017-12-05T08:33:35.713Z,14.25
2017-12-05T08:36:03.223Z,12.90
2017-12-05T08:38:30.719Z,16.98
2017-12-05T08:40:58.979Z,11.60
2017-12-05T08:43:27.255Z,12.20
2017-12-05T08:45:55.535Z,10.70
2017-12-05T08:48:23.803Z,12.60
2017-12-05T08:50:51.301Z,10.25
2017-12-05T08:53:18.806Z,9.05
2017-12-05T08:55:46.296Z,8.75
2017-12-05T08:58:14.547Z,9.68
2017-12-05T09:00:42.056Z,9.30
2017-12-05T09:03:09.547Z,9.25
2017-12-05T09:05:37.156Z,9.93
2017-12-05T09:08:04.655Z,9.25
2017-12-05T09:10:32.143Z,7.80
2017-12-05T09:12:59.654Z,7.93
2017-12-05T09:15:27.163Z,7.30
2017-12-05T09:17:55.421Z,7.37
2017-12-05T09:20:22.909Z,8.00
2017-12-05T09:22:51.175Z,13.27
2017-12-05T09:25:19.451Z,6.80
2017-12-05T09:27:47.708Z,6.75
2017-12-05T09:30:15.229Z,6.45
2017-12-05T09:32:42.730Z,7.10
2017-12-05T09:35:10.223Z,7.03
2017-12-05T09:37:37.954Z,7.05
2017-12-05T09:40:05.462Z,6.07
2017-12-05T09:42:32.996Z,6.87
2017-12-05T09:45:01.251Z,7.95
2017-12-05T09:47:28.749Z,7.18
2017-12-05T09:49:56.247Z,5.97
2017-12-05T09:52:23.770Z,6.40
2017-12-05T09:54:51.296Z,6.85
2017-12-05T09:57:19.563Z,6.62
2017-12-05T09:59:47.839Z,6.65
2017-12-05T10:02:15.352Z,6.12
2017-12-05T10:04:42.845Z,6.28
2017-12-05T10:07:10.340Z,7.80
2017-12-05T10:09:37.995Z,6.70
2017-12-05T10:12:06.767Z,7.10
2017-12-05T10:14:35.032Z,6.53
2017-12-05T10:17:02.539Z,7.12
2017-12-05T10:19:30.029Z,5.82
2017-12-05T10:21:57.739Z,7.22
2017-12-05T10:24:25.995Z,6.07
2017-12-05T10:26:53.775Z,7.35
2017-12-05T10:29:22.070Z,6.68
2017-12-05T10:31:49.564Z,8.63
2017-12-05T10:34:17.076Z,7.03
2017-12-05T10:36:44.588Z,8.32
2017-12-05T10:39:12.083Z,7.18
2017-12-05T10:41:40.343Z,7.60
2017-12-05T10:44:07.837Z,9.35
2017-12-05T10:46:35.331Z,7.32
2017-12-05T10:49:02.843Z,7.62
2017-12-05T10:51:31.312Z,6.35
2017-12-05T10:53:59.587Z,8.63
2017-12-05T10:56:27.847Z,13.18
2017-12-05T10:58:55.350Z,16.05
2017-12-05T11:01:24.059Z,37.45
2017-12-05T11:03:51.843Z,27.55
2017-12-05T11:06:20.119Z,9.77
2017-12-05T11:08:47.616Z,7.82
2017-12-05T11:11:15.892Z,7.12
2017-12-05T11:13:44.151Z,6.93
2017-12-05T11:16:11.690Z,6.90
2017-12-05T11:18:39.162Z,6.85
2017-12-05T11:21:07.423Z,5.60
2017-12-05T11:23:34.911Z,6.32
2017-12-05T11:26:03.195Z,7.25
2017-12-05T11:28:31.470Z,6.47
2017-12-05T11:30:59.735Z,7.07
2017-12-05T11:33:28.119Z,6.05
2017-12-05T11:35:56.371Z,6.60
2017-12-05T11:38:23.882Z,6.32
2017-12-05T11:40:51.383Z,6.30
2017-12-05T11:43:18.873Z,7.87
2017-12-05T11:45:47.155Z,6.00
2017-12-05T11:48:15.627Z,6.97
2017-12-05T11:50:43.883Z,5.90
2017-12-05T11:53:11.568Z,6.47
2017-12-05T11:55:39.847Z,6.75
2017-12-05T11:58:08.119Z,6.87
2017-12-05T12:00:36.379Z,5.45
2017-12-05T12:03:03.892Z,6.55
2017-12-05T12:05:31.400Z,5.90
2017-12-05T12:07:58.892Z,6.95
2017-12-05T12:10:26.412Z,6.37
2017-12-05T12:12:54.094Z,5.65
2017-12-05T12:15:22.347Z,6.75
2017-12-05T12:17:49.856Z,6.30
2017-12-05T12:20:17.355Z,6.95
2017-12-05T12:22:44.844Z,6.78
2017-12-05T12:25:13.099Z,7.93
2017-12-05T12:27:40.619Z,6.30
2017-12-05T12:30:08.112Z,6.82
2017-12-05T12:32:35.607Z,6.15
2017-12-05T12:35:03.099Z,6.05
2017-12-05T12:37:30.595Z,6.43
2017-12-05T12:39:58.092Z,6.80
2017-12-05T12:42:25.612Z,7.40
2017-12-05T12:44:53.868Z,8.15
2017-12-05T12:47:21.376Z,7.60
2017-12-05T12:49:48.894Z,9.20
2017-12-05T12:52:16.391Z,7.80
2017-12-05T12:54:43.879Z,9.45
2017-12-05T12:57:11.896Z,9.00
2017-12-05T12:59:39.399Z,8.50
2017-12-05T13:02:06.965Z,9.52
2017-12-05T13:04:34.508Z,8.27
2017-12-05T13:07:02.001Z,9.40
2017-12-05T13:09:29.515Z,8.90
2017-12-05T13:11:57.163Z,11.55
2017-12-05T13:14:25.419Z,9.45
2017-12-05T13:16:52.911Z,10.48
2017-12-05T13:19:20.419Z,9.10
2017-12-05T13:21:47.931Z,9.18
2017-12-05T13:24:15.428Z,9.48
2017-12-05T13:26:42.933Z,10.55
2017-12-05T13:29:11.192Z,9.50
2017-12-05T13:31:38.699Z,9.35
2017-12-05T13:34:06.195Z,8.50
2017-12-05T13:36:33.689Z,8.57
2017-12-05T13:39:01.272Z,8.60
2017-12-05T13:41:28.784Z,9.50
2017-12-05T13:43:56.291Z,9.57
2017-12-05T13:46:23.788Z,9.05
2017-12-05T13:48:51.279Z,9.50
2017-12-05T13:51:19.552Z,9.10
2017-12-05T13:53:48.026Z,9.55
2017-12-05T13:56:16.380Z,8.98
2017-12-05T13:58:43.868Z,9.93
2017-12-05T14:01:12.135Z,8.85
2017-12-05T14:03:40.407Z,9.85
2017-12-05T14:06:08.676Z,8.85
2017-12-05T14:08:36.187Z,9.25
2017-12-05T14:11:03.684Z,9.80
2017-12-05T14:13:31.187Z,11.52
2017-12-05T14:15:58.685Z,9.63
2017-12-05T14:18:26.189Z,10.63
2017-12-05T14:20:54.476Z,9.88
2017-12-05T14:23:21.983Z,10.88
2017-12-05T14:25:49.480Z,10.20
2017-12-05T14:28:17.740Z,9.52
2017-12-05T14:30:45.248Z,11.55
2017-12-05T14:33:12.772Z,12.52
2017-12-05T14:35:41.047Z,10.63
2017-12-05T14:38:09.331Z,12.60
2017-12-05T14:40:37.612Z,11.43
2017-12-05T14:43:05.116Z,11.30
2017-12-05T14:45:32.616Z,11.40
2017-12-05T14:48:00.879Z,11.70
2017-12-05T14:50:28.380Z,10.60
2017-12-05T14:52:55.895Z,12.55
2017-12-05T14:55:23.396Z,11.90
2017-12-05T14:57:50.914Z,13.93
2017-12-05T15:00:18.483Z,13.73
2017-12-05T15:02:46.756Z,14.52
2017-12-05T15:05:15.023Z,14.35
2017-12-05T15:07:42.524Z,14.43
2017-12-05T15:10:10.047Z,16.05
2017-12-05T15:12:38.336Z,12.43
2017-12-05T15:15:06.600Z,19.83
2017-12-05T15:17:34.880Z,14.55
2017-12-05T15:20:03.149Z,13.15
2017-12-05T15:22:30.719Z,16.35
2017-12-05T15:24:58.987Z,14.85
2017-12-05T15:27:26.482Z,13.50
2017-12-05T15:29:54.006Z,12.63
2017-12-05T15:32:22.279Z,14.65
2017-12-05T15:34:50.556Z,15.85
2017-12-05T15:37:18.828Z,18.35
2017-12-05T15:39:46.328Z,21.80
2017-12-05T15:42:13.823Z,15.63
2017-12-05T15:44:41.335Z,16.50
2017-12-05T15:47:08.839Z,17.58
2017-12-05T15:49:36.343Z,19.17
2017-12-05T15:52:04.679Z,19.67
2017-12-05T15:54:32.177Z,16.65
2017-12-05T15:56:59.831Z,21.30
2017-12-05T15:59:28.091Z,16.65
2017-12-05T16:01:55.620Z,15.63
2017-12-05T16:04:23.111Z,16.77
2017-12-05T16:06:50.641Z,16.65
2017-12-05T16:09:18.147Z,19.05
2017-12-05T16:11:46.420Z,18.23
2017-12-05T16:14:14.695Z,17.95
2017-12-05T16:16:42.956Z,15.40
2017-12-05T16:19:10.471Z,19.65
2017-12-05T16:21:37.964Z,18.23
2017-12-05T16:24:05.488Z,18.30
2017-12-05T16:26:33.012Z,17.48
2017-12-05T16:29:01.480Z,19.67
2017-12-05T16:31:29.755Z,16.52
2017-12-05T16:33:58.024Z,14.93
2017-12-05T16:36:25.525Z,17.30
2017-12-05T16:38:53.046Z,19.02
2017-12-05T16:41:21.308Z,17.55
2017-12-05T16:43:48.843Z,18.15
2017-12-05T16:46:16.356Z,20.10
2017-12-05T16:48:44.627Z,17.17
2017-12-05T16:51:12.888Z,18.73
2017-12-05T16:53:40.432Z,16.08
2017-12-05T16:56:08.124Z,17.37
2017-12-05T16:58:36.400Z,18.75
2017-12-05T17:01:04.681Z,18.92
2017-12-05T17:03:32.967Z,16.15
2017-12-05T17:06:00.503Z,17.02
2017-12-05T17:08:28.772Z,17.65
2017-12-05T17:10:56.272Z,14.77
2017-12-05T17:13:23.780Z,19.27
2017-12-05T17:15:51.279Z,18.42
2017-12-05T17:18:18.799Z,18.90
2017-12-05T17:20:46.307Z,20.37
2017-12-05T17:23:13.947Z,15.13
2017-12-05T17:25:42.220Z,21.55
2017-12-05T17:28:10.524Z,20.48
2017-12-05T17:30:38.046Z,18.70
2017-12-05T17:33:06.409Z,16.58
2017-12-05T17:35:34.695Z,18.60
2017-12-05T17:38:02.995Z,16.55
2017-12-05T17:40:30.501Z,18.65
2017-12-05T17:42:58.023Z,19.40
2017-12-05T17:45:25.538Z,17.17
2017-12-05T17:47:53.045Z,18.48
2017-12-05T17:50:20.572Z,18.55
2017-12-05T17:52:48.862Z,16.42
2017-12-05T17:55:16.516Z,16.42
2017-12-05T17:57:44.779Z,19.25
2017-12-05T18:00:13.071Z,18.30
2017-12-05T18:02:41.393Z,15.82
2017-12-05T18:05:08.944Z,15.38
2017-12-05T18:07:36.452Z,17.02
2017-12-05T18:10:03.976Z,17.77
2017-12-05T18:12:32.636Z,18.92
2017-12-05T18:15:00.171Z,16.58
2017-12-05T18:17:28.489Z,16.67
2017-12-05T18:19:56.007Z,20.23
2017-12-05T18:22:24.344Z,20.23
2017-12-05T18:24:52.027Z,16.42
2017-12-05T18:27:19.536Z,16.77
2017-12-05T18:29:47.051Z,17.20
2017-12-05T18:32:15.351Z,14.77
2017-12-05T18:34:42.999Z,16.40
2017-12-05T18:37:11.479Z,17.65
2017-12-05T18:39:39.755Z,18.25
2017-12-05T18:42:08.019Z,14.98
2017-12-05T18:44:35.539Z,17.15
2017-12-05T18:47:03.051Z,20.42
2017-12-05T18:49:31.314Z,16.40
2017-12-05T18:51:59.589Z,16.37
2017-12-05T18:54:27.859Z,17.05
2017-12-05T18:56:55.358Z,16.37
2017-12-05T18:59:22.860Z,17.70
2017-12-05T19:01:50.355Z,17.75
2017-12-05T19:04:18.612Z,17.90
2017-12-05T19:06:46.147Z,17.67
2017-12-05T19:09:13.643Z,16.60
2017-12-05T19:11:41.907Z,18.62
2017-12-05T19:14:09.404Z,22.73
2017-12-05T19:16:36.902Z,18.95
2017-12-05T19:19:04.399Z,21.15
2017-12-05T19:21:32.667Z,15.70
2017-12-05T19:24:00.951Z,16.15
2017-12-05T19:26:29.256Z,17.33
2017-12-05T19:28:56.751Z,17.92
2017-12-05T19:31:24.255Z,17.20
2017-12-05T19:33:51.775Z,22.33
2017-12-05T19:36:20.040Z,17.83
2017-12-05T19:38:47.549Z,19.52
2017-12-05T19:41:15.047Z,17.48
2017-12-05T19:43:42.592Z,19.02
2017-12-05T19:46:10.083Z,16.98
2017-12-05T19:48:37.584Z,16.52
2017-12-05T19:51:05.244Z,17.30
2017-12-05T19:53:32.765Z,17.23
2017-12-05T19:56:00.291Z,17.80
2017-12-05T19:58:27.798Z,20.27
2017-12-05T20:00:56.072Z,16.00
2017-12-05T20:03:24.350Z,18.65
2017-12-05T20:05:52.634Z,21.52
2017-12-05T20:08:20.912Z,20.95
2017-12-05T20:10:49.196Z,17.17
2017-12-05T20:13:17.463Z,17.35
2017-12-05T20:15:45.743Z,18.33
2017-12-05T20:18:14.011Z,22.13
2017-12-05T20:20:42.280Z,19.35
2017-12-05T20:23:09.796Z,19.77
2017-12-05T20:25:37.307Z,20.45
2017-12-05T20:28:05.577Z,24.08
2017-12-05T20:30:33.876Z,17.37
2017-12-05T20:33:01.392Z,21.00
2017-12-05T20:35:28.891Z,21.77
2017-12-05T20:37:56.410Z,17.50
2017-12-05T20:40:23.911Z,16.87
2017-12-05T20:42:51.463Z,20.25
2017-12-05T20:45:19.732Z,22.05
2017-12-05T20:47:48.015Z,22.45
2017-12-05T20:50:16.494Z,19.92
2017-12-05T20:52:44.762Z,16.83
2017-12-05T20:55:13.053Z,19.73
2017-12-05T20:57:41.535Z,19.12
2017-12-05T21:00:09.055Z,17.77
2017-12-05T21:02:36.574Z,17.87
2017-12-05T21:05:04.200Z,21.67
2017-12-05T21:07:32.472Z,17.15
2017-12-05T21:10:00.743Z,20.95
2017-12-05T21:12:28.251Z,24.55
2017-12-05T21:14:55.753Z,17.67
2017-12-05T21:17:23.275Z,16.50
2017-12-05T21:19:50.779Z,21.83
2017-12-05T21:22:19.064Z,17.15
2017-12-05T21:24:47.348Z,17.10
2017-12-05T21:27:15.634Z,15.73
2017-12-05T21:29:43.131Z,16.08
2017-12-05T21:32:10.633Z,12.40
2017-12-05T21:34:38.926Z,18.30
2017-12-05T21:37:06.429Z,18.20
2017-12-05T21:39:33.939Z,18.60
2017-12-05T21:42:01.441Z,24.67
2017-12-05T21:44:28.931Z,18.33
2017-12-05T21:46:56.443Z,14.45
2017-12-05T21:49:23.939Z,18.00
2017-12-05T21:51:51.675Z,15.38
2017-12-05T21:54:19.131Z,16.58
2017-12-05T21:56:46.631Z,18.45
2017-12-05T21:59:14.887Z,27.58
2017-12-05T22:01:42.401Z,20.10
2017-12-05T22:04:09.911Z,17.15
2017-12-05T22:06:37.427Z,16.87
2017-12-05T22:09:05.151Z,17.62
2017-12-05T22:11:33.411Z,32.13
2017-12-05T22:14:00.928Z,16.35
2017-12-05T22:16:28.429Z,18.87
2017-12-05T22:18:57.432Z,18.75
2017-12-05T22:21:25.703Z,16.20
2017-12-05T22:23:53.208Z,19.05
2017-12-05T22:26:20.728Z,16.25
2017-12-05T22:28:49.007Z,18.58
2017-12-05T22:31:17.279Z,13.65
2017-12-05T22:33:45.540Z,19.00
2017-12-05T22:36:13.042Z,18.05
2017-12-05T22:38:40.551Z,22.27
2017-12-05T22:41:08.075Z,19.70
2017-12-05T22:43:35.591Z,19.52
2017-12-05T22:46:03.869Z,19.48
2017-12-05T22:48:32.135Z,20.35
2017-12-05T22:50:59.807Z,17.52
2017-12-05T22:53:28.067Z,15.90
2017-12-05T22:55:55.587Z,17.55
2017-12-05T22:58:23.115Z,13.75
2017-12-05T23:00:50.612Z,18.48
2017-12-05T23:03:18.127Z,16.67
2017-12-05T23:05:46.403Z,17.73
2017-12-05T23:08:14.669Z,17.37
2017-12-05T23:10:42.935Z,19.00
2017-12-05T23:13:10.463Z,16.77
2017-12-05T23:15:37.968Z,15.23
2017-12-05T23:18:06.231Z,17.05
2017-12-05T23:20:33.747Z,15.80
2017-12-05T23:23:01.267Z,17.60
2017-12-05T23:25:29.547Z,20.60
2017-12-05T23:27:57.815Z,19.25
2017-12-05T23:30:26.085Z,19.12
2017-12-05T23:32:54.368Z,17.58
2017-12-05T23:35:22.634Z,17.10
2017-12-05T23:37:50.919Z,16.40
2017-12-05T23:40:19.186Z,16.35
2017-12-05T23:42:47.470Z,18.05
2017-12-05T23:45:15.739Z,16.48
2017-12-05T23:47:43.999Z,19.65
2017-12-05T23:50:11.519Z,15.18
2017-12-05T23:52:39.011Z,18.42
2017-12-05T23:55:06.524Z,18.58
2017-12-05T23:57:34.036Z,19.02
